sensor_id;sensor_type;location;lat;lon;timestamp;P1;durP1;ratioP1;P2;durP2;ratioP2
21175;SDS011;10746;50.178;8.186;2023-04-24T00:01:39;5.53;;;3.07;;
21175;SDS011;10746;50.178;8.186;2023-04-24T00:04:07;3.43;;;2.83;;
21175;SDS011;10746;50.178;8.186;2023-04-24T00:06:36;3.30;;;3.00;;
21175;SDS011;10746;50.178;8.186;2023-04-24T00:09:03;3.37;;;2.87;;
21175;SDS011;10746;50.178;8.186;2023-04-24T00:11:31;4.20;;;2.97;;
21175;SDS011;10746;50.178;8.186;2023-04-24T00:13:58;4.13;;;2.73;;
21175;SDS011;10746;50.178;8.186;2023-04-24T00:16:25;4.60;;;2.67;;
21175;SDS011;10746;50.178;8.186;2023-04-24T00:18:52;3.77;;;2.77;;
21175;SDS011;10746;50.178;8.186;2023-04-24T00:21:19;3.30;;;2.70;;
21175;SDS011;10746;50.178;8.186;2023-04-24T00:23:46;4.10;;;2.77;;
21175;SDS011;10746;50.178;8.186;2023-04-24T00:26:13;3.37;;;2.90;;
21175;SDS011;10746;50.178;8.186;2023-04-24T00:28:41;3.00;;;2.80;;
21175;SDS011;10746;50.178;8.186;2023-04-24T00:31:08;4.23;;;2.53;;
21175;SDS011;10746;50.178;8.186;2023-04-24T00:33:35;5.20;;;3.03;;
21175;SDS011;10746;50.178;8.186;2023-04-24T00:36:02;3.73;;;2.50;;
21175;SDS011;10746;50.178;8.186;2023-04-24T00:38:29;7.53;;;2.80;;
21175;SDS011;10746;50.178;8.186;2023-04-24T00:40:56;3.20;;;2.90;;
21175;SDS011;10746;50.178;8.186;2023-04-24T00:43:22;3.30;;;3.00;;
21175;SDS011;10746;50.178;8.186;2023-04-24T00:45:51;3.63;;;3.33;;
21175;SDS011;10746;50.178;8.186;2023-04-24T00:48:17;3.07;;;2.87;;
21175;SDS011;10746;50.178;8.186;2023-04-24T00:50:45;5.47;;;3.83;;
21175;SDS011;10746;50.178;8.186;2023-04-24T00:53:12;5.63;;;3.60;;
21175;SDS011;10746;50.178;8.186;2023-04-24T00:55:39;5.73;;;3.27;;
21175;SDS011;10746;50.178;8.186;2023-04-24T00:58:05;5.30;;;3.60;;
21175;SDS011;10746;50.178;8.186;2023-04-24T01:00:32;4.37;;;3.47;;
21175;SDS011;10746;50.178;8.186;2023-04-24T01:03:01;7.03;;;3.63;;
21175;SDS011;10746;50.178;8.186;2023-04-24T01:05:31;4.17;;;3.50;;
21175;SDS011;10746;50.178;8.186;2023-04-24T01:07:58;3.77;;;3.43;;
21175;SDS011;10746;50.178;8.186;2023-04-24T01:10:26;6.03;;;4.23;;
21175;SDS011;10746;50.178;8.186;2023-04-24T01:12:55;6.80;;;3.60;;
21175;SDS011;10746;50.178;8.186;2023-04-24T01:15:22;3.87;;;3.13;;
21175;SDS011;10746;50.178;8.186;2023-04-24T01:17:49;6.00;;;3.17;;
21175;SDS011;10746;50.178;8.186;2023-04-24T01:20:17;3.93;;;3.20;;
21175;SDS011;10746;50.178;8.186;2023-04-24T01:22:47;5.43;;;3.40;;
21175;SDS011;10746;50.178;8.186;2023-04-24T01:25:14;3.20;;;2.90;;
21175;SDS011;10746;50.178;8.186;2023-04-24T01:27:41;6.47;;;3.10;;
21175;SDS011;10746;50.178;8.186;2023-04-24T01:30:08;6.20;;;3.17;;
21175;SDS011;10746;50.178;8.186;2023-04-24T01:32:36;3.30;;;2.70;;
21175;SDS011;10746;50.178;8.186;2023-04-24T01:35:04;3.63;;;2.90;;
21175;SDS011;10746;50.178;8.186;2023-04-24T01:37:32;3.37;;;2.77;;
21175;SDS011;10746;50.178;8.186;2023-04-24T01:40:00;4.40;;;3.37;;
21175;SDS011;10746;50.178;8.186;2023-04-24T01:42:28;3.20;;;3.00;;
21175;SDS011;10746;50.178;8.186;2023-04-24T01:44:56;2.60;;;2.50;;
21175;SDS011;10746;50.178;8.186;2023-04-24T01:47:23;2.50;;;2.40;;
21175;SDS011;10746;50.178;8.186;2023-04-24T01:49:50;2.97;;;2.60;;
21175;SDS011;10746;50.178;8.186;2023-04-24T01:52:17;5.27;;;2.70;;
21175;SDS011;10746;50.178;8.186;2023-04-24T01:54:44;2.50;;;2.30;;
21175;SDS011;10746;50.178;8.186;2023-04-24T01:57:13;2.67;;;2.47;;
21175;SDS011;10746;50.178;8.186;2023-04-24T01:59:40;2.10;;;2.00;;
21175;SDS011;10746;50.178;8.186;2023-04-24T02:02:06;2.40;;;1.70;;
21175;SDS011;10746;50.178;8.186;2023-04-24T02:04:33;2.00;;;1.80;;
21175;SDS011;10746;50.178;8.186;2023-04-24T02:07:00;1.70;;;1.60;;
21175;SDS011;10746;50.178;8.186;2023-04-24T02:09:27;1.80;;;1.70;;
21175;SDS011;10746;50.178;8.186;2023-04-24T02:11:53;1.70;;;1.60;;
21175;SDS011;10746;50.178;8.186;2023-04-24T02:14:22;2.87;;;1.90;;
21175;SDS011;10746;50.178;8.186;2023-04-24T02:16:49;1.70;;;1.70;;
21175;SDS011;10746;50.178;8.186;2023-04-24T02:19:16;1.60;;;1.60;;
21175;SDS011;10746;50.178;8.186;2023-04-24T02:21:43;4.17;;;1.90;;
21175;SDS011;10746;50.178;8.186;2023-04-24T02:24:09;1.70;;;1.70;;
21175;SDS011;10746;50.178;8.186;2023-04-24T02:26:36;1.97;;;1.87;;
21175;SDS011;10746;50.178;8.186;2023-04-24T02:29:03;3.30;;;1.87;;
21175;SDS011;10746;50.178;8.186;2023-04-24T02:31:31;2.33;;;2.23;;
21175;SDS011;10746;50.178;8.186;2023-04-24T02:33:58;2.00;;;1.90;;
21175;SDS011;10746;50.178;8.186;2023-04-24T02:36:24;1.97;;;1.87;;
21175;SDS011;10746;50.178;8.186;2023-04-24T02:38:51;2.00;;;1.90;;
21175;SDS011;10746;50.178;8.186;2023-04-24T02:41:18;3.20;;;2.10;;
21175;SDS011;10746;50.178;8.186;2023-04-24T02:43:45;2.23;;;2.00;;
21175;SDS011;10746;50.178;8.186;2023-04-24T02:46:12;3.90;;;1.90;;
21175;SDS011;10746;50.178;8.186;2023-04-24T02:48:40;3.00;;;2.10;;
21175;SDS011;10746;50.178;8.186;2023-04-24T02:51:07;2.60;;;2.20;;
21175;SDS011;10746;50.178;8.186;2023-04-24T02:53:33;2.93;;;2.13;;
21175;SDS011;10746;50.178;8.186;2023-04-24T02:56:00;2.77;;;2.10;;
21175;SDS011;10746;50.178;8.186;2023-04-24T02:58:27;2.00;;;1.90;;
21175;SDS011;10746;50.178;8.186;2023-04-24T03:00:54;1.97;;;1.87;;
21175;SDS011;10746;50.178;8.186;2023-04-24T03:03:21;2.10;;;2.00;;
21175;SDS011;10746;50.178;8.186;2023-04-24T03:05:50;2.57;;;2.37;;
21175;SDS011;10746;50.178;8.186;2023-04-24T03:08:16;4.67;;;2.10;;
21175;SDS011;10746;50.178;8.186;2023-04-24T03:10:43;2.40;;;2.30;;
21175;SDS011;10746;50.178;8.186;2023-04-24T03:13:10;2.73;;;2.40;;
21175;SDS011;10746;50.178;8.186;2023-04-24T03:15:37;2.30;;;2.17;;
21175;SDS011;10746;50.178;8.186;2023-04-24T03:18:04;2.57;;;2.40;;
21175;SDS011;10746;50.178;8.186;2023-04-24T03:20:30;5.23;;;2.23;;
21175;SDS011;10746;50.178;8.186;2023-04-24T03:22:58;2.40;;;2.30;;
21175;SDS011;10746;50.178;8.186;2023-04-24T03:25:25;3.23;;;2.23;;
21175;SDS011;10746;50.178;8.186;2023-04-24T03:27:52;2.20;;;2.10;;
21175;SDS011;10746;50.178;8.186;2023-04-24T03:30:19;2.30;;;2.20;;
21175;SDS011;10746;50.178;8.186;2023-04-24T03:32:46;2.60;;;2.40;;
21175;SDS011;10746;50.178;8.186;2023-04-24T03:35:13;2.60;;;2.40;;
21175;SDS011;10746;50.178;8.186;2023-04-24T03:37:40;2.27;;;2.17;;
21175;SDS011;10746;50.178;8.186;2023-04-24T03:40:08;2.67;;;2.47;;
21175;SDS011;10746;50.178;8.186;2023-04-24T03:42:35;2.70;;;2.50;;
21175;SDS011;10746;50.178;8.186;2023-04-24T03:45:02;3.10;;;2.67;;
21175;SDS011;10746;50.178;8.186;2023-04-24T03:47:30;2.50;;;2.30;;
21175;SDS011;10746;50.178;8.186;2023-04-24T03:49:57;2.77;;;2.57;;
21175;SDS011;10746;50.178;8.186;2023-04-24T03:52:24;3.17;;;2.60;;
21175;SDS011;10746;50.178;8.186;2023-04-24T03:54:50;2.60;;;2.40;;
21175;SDS011;10746;50.178;8.186;2023-04-24T03:57:18;2.73;;;2.37;;
21175;SDS011;10746;50.178;8.186;2023-04-24T03:59:45;2.10;;;2.00;;
21175;SDS011;10746;50.178;8.186;2023-04-24T04:02:12;2.80;;;2.60;;
21175;SDS011;10746;50.178;8.186;2023-04-24T04:04:39;2.50;;;2.40;;
21175;SDS011;10746;50.178;8.186;2023-04-24T04:07:05;4.57;;;2.77;;
21175;SDS011;10746;50.178;8.186;2023-04-24T04:09:33;2.77;;;2.50;;
21175;SDS011;10746;50.178;8.186;2023-04-24T04:12:00;4.47;;;3.00;;
21175;SDS011;10746;50.178;8.186;2023-04-24T04:14:28;3.17;;;2.70;;
21175;SDS011;10746;50.178;8.186;2023-04-24T04:16:55;2.80;;;2.60;;
21175;SDS011;10746;50.178;8.186;2023-04-24T04:19:21;3.23;;;2.77;;
21175;SDS011;10746;50.178;8.186;2023-04-24T04:21:48;3.57;;;3.13;;
21175;SDS011;10746;50.178;8.186;2023-04-24T04:24:18;3.00;;;2.70;;
21175;SDS011;10746;50.178;8.186;2023-04-24T04:26:45;5.53;;;2.70;;
21175;SDS011;10746;50.178;8.186;2023-04-24T04:29:12;2.97;;;2.67;;
21175;SDS011;10746;50.178;8.186;2023-04-24T04:31:41;4.03;;;2.53;;
21175;SDS011;10746;50.178;8.186;2023-04-24T04:34:08;2.87;;;2.67;;
21175;SDS011;10746;50.178;8.186;2023-04-24T04:36:35;2.93;;;2.73;;
21175;SDS011;10746;50.178;8.186;2023-04-24T04:39:05;2.90;;;2.60;;
21175;SDS011;10746;50.178;8.186;2023-04-24T04:41:32;2.80;;;2.60;;
21175;SDS011;10746;50.178;8.186;2023-04-24T04:44:00;2.63;;;2.43;;
21175;SDS011;10746;50.178;8.186;2023-04-24T04:46:29;2.77;;;2.63;;
21175;SDS011;10746;50.178;8.186;2023-04-24T04:48:58;3.90;;;3.00;;
21175;SDS011;10746;50.178;8.186;2023-04-24T04:51:25;5.40;;;2.93;;
21175;SDS011;10746;50.178;8.186;2023-04-24T04:53:52;3.20;;;2.90;;
21175;SDS011;10746;50.178;8.186;2023-04-24T04:56:19;4.53;;;2.90;;
21175;SDS011;10746;50.178;8.186;2023-04-24T04:58:46;3.43;;;3.17;;
21175;SDS011;10746;50.178;8.186;2023-04-24T05:01:14;2.97;;;2.77;;
21175;SDS011;10746;50.178;8.186;2023-04-24T05:03:41;4.57;;;3.17;;
21175;SDS011;10746;50.178;8.186;2023-04-24T05:06:09;4.80;;;2.60;;
21175;SDS011;10746;50.178;8.186;2023-04-24T05:08:36;3.83;;;2.70;;
21175;SDS011;10746;50.178;8.186;2023-04-24T05:11:02;3.97;;;2.90;;
21175;SDS011;10746;50.178;8.186;2023-04-24T05:13:30;3.83;;;3.20;;
21175;SDS011;10746;50.178;8.186;2023-04-24T05:15:57;3.00;;;2.80;;
21175;SDS011;10746;50.178;8.186;2023-04-24T05:18:24;3.13;;;2.80;;
21175;SDS011;10746;50.178;8.186;2023-04-24T05:20:51;2.73;;;2.63;;
21175;SDS011;10746;50.178;8.186;2023-04-24T05:23:19;3.17;;;2.87;;
21175;SDS011;10746;50.178;8.186;2023-04-24T05:25:45;5.57;;;3.13;;
21175;SDS011;10746;50.178;8.186;2023-04-24T05:28:12;3.60;;;3.30;;
21175;SDS011;10746;50.178;8.186;2023-04-24T05:30:40;3.50;;;3.23;;
21175;SDS011;10746;50.178;8.186;2023-04-24T05:33:07;6.13;;;3.93;;
21175;SDS011;10746;50.178;8.186;2023-04-24T05:35:34;4.37;;;3.30;;
21175;SDS011;10746;50.178;8.186;2023-04-24T05:38:01;3.90;;;3.50;;
21175;SDS011;10746;50.178;8.186;2023-04-24T05:40:29;4.40;;;3.70;;
21175;SDS011;10746;50.178;8.186;2023-04-24T05:42:56;6.27;;;3.93;;
21175;SDS011;10746;50.178;8.186;2023-04-24T05:45:23;7.47;;;3.93;;
21175;SDS011;10746;50.178;8.186;2023-04-24T05:47:50;5.27;;;4.30;;
21175;SDS011;10746;50.178;8.186;2023-04-24T05:50:17;5.60;;;4.77;;
21175;SDS011;10746;50.178;8.186;2023-04-24T05:52:44;5.07;;;3.83;;
21175;SDS011;10746;50.178;8.186;2023-04-24T05:55:11;6.90;;;5.23;;
21175;SDS011;10746;50.178;8.186;2023-04-24T05:57:39;6.73;;;5.10;;
21175;SDS011;10746;50.178;8.186;2023-04-24T06:00:06;9.10;;;5.70;;
21175;SDS011;10746;50.178;8.186;2023-04-24T06:02:37;9.60;;;5.77;;
21175;SDS011;10746;50.178;8.186;2023-04-24T06:05:04;7.67;;;5.50;;
21175;SDS011;10746;50.178;8.186;2023-04-24T06:07:31;9.80;;;5.03;;
21175;SDS011;10746;50.178;8.186;2023-04-24T06:09:57;9.10;;;5.90;;
21175;SDS011;10746;50.178;8.186;2023-04-24T06:12:25;6.53;;;4.90;;
21175;SDS011;10746;50.178;8.186;2023-04-24T06:14:53;8.30;;;4.93;;
21175;SDS011;10746;50.178;8.186;2023-04-24T06:17:20;7.77;;;5.03;;
21175;SDS011;10746;50.178;8.186;2023-04-24T06:19:47;8.67;;;4.90;;
21175;SDS011;10746;50.178;8.186;2023-04-24T06:22:14;6.70;;;5.47;;
21175;SDS011;10746;50.178;8.186;2023-04-24T06:24:41;8.50;;;5.37;;
21175;SDS011;10746;50.178;8.186;2023-04-24T06:27:07;6.63;;;4.80;;
21175;SDS011;10746;50.178;8.186;2023-04-24T06:29:35;8.03;;;4.30;;
21175;SDS011;10746;50.178;8.186;2023-04-24T06:32:04;6.77;;;4.77;;
21175;SDS011;10746;50.178;8.186;2023-04-24T06:34:31;10.13;;;4.53;;
21175;SDS011;10746;50.178;8.186;2023-04-24T06:36:59;9.33;;;4.60;;
21175;SDS011;10746;50.178;8.186;2023-04-24T06:39:25;5.27;;;4.70;;
21175;SDS011;10746;50.178;8.186;2023-04-24T06:41:52;5.33;;;4.33;;
21175;SDS011;10746;50.178;8.186;2023-04-24T06:44:19;5.40;;;4.57;;
21175;SDS011;10746;50.178;8.186;2023-04-24T06:46:46;4.03;;;3.60;;
21175;SDS011;10746;50.178;8.186;2023-04-24T06:49:14;9.00;;;4.50;;
21175;SDS011;10746;50.178;8.186;2023-04-24T06:51:41;4.57;;;4.10;;
21175;SDS011;10746;50.178;8.186;2023-04-24T06:54:08;3.53;;;3.30;;
21175;SDS011;10746;50.178;8.186;2023-04-24T06:56:34;5.72;;;3.72;;
21175;SDS011;10746;50.178;8.186;2023-04-24T06:59:01;3.30;;;3.10;;
21175;SDS011;10746;50.178;8.186;2023-04-24T07:01:28;5.17;;;3.27;;
21175;SDS011;10746;50.178;8.186;2023-04-24T07:03:55;4.67;;;3.33;;
21175;SDS011;10746;50.178;8.186;2023-04-24T07:06:23;6.67;;;2.90;;
21175;SDS011;10746;50.178;8.186;2023-04-24T07:08:49;3.40;;;3.10;;
21175;SDS011;10746;50.178;8.186;2023-04-24T07:11:16;4.67;;;3.37;;
21175;SDS011;10746;50.178;8.186;2023-04-24T07:13:43;7.20;;;3.40;;
21175;SDS011;10746;50.178;8.186;2023-04-24T07:16:10;3.50;;;3.20;;
21175;SDS011;10746;50.178;8.186;2023-04-24T07:18:36;3.40;;;3.10;;
21175;SDS011;10746;50.178;8.186;2023-04-24T07:21:04;3.53;;;3.03;;
21175;SDS011;10746;50.178;8.186;2023-04-24T07:23:33;3.25;;;2.92;;
21175;SDS011;10746;50.178;8.186;2023-04-24T07:26:00;3.45;;;3.15;;
21175;SDS011;10746;50.178;8.186;2023-04-24T07:28:27;2.92;;;2.45;;
21175;SDS011;10746;50.178;8.186;2023-04-24T07:30:56;2.70;;;2.50;;
21175;SDS011;10746;50.178;8.186;2023-04-24T07:33:23;4.57;;;2.05;;
21175;SDS011;10746;50.178;8.186;2023-04-24T07:35:50;2.37;;;2.20;;
21175;SDS011;10746;50.178;8.186;2023-04-24T07:38:17;7.13;;;4.07;;
21175;SDS011;10746;50.178;8.186;2023-04-24T07:40:47;3.20;;;3.00;;
21175;SDS011;10746;50.178;8.186;2023-04-24T07:43:14;5.23;;;3.60;;
21175;SDS011;10746;50.178;8.186;2023-04-24T07:45:40;3.63;;;3.27;;
21175;SDS011;10746;50.178;8.186;2023-04-24T07:48:08;4.82;;;3.13;;
21175;SDS011;10746;50.178;8.186;2023-04-24T07:50:35;4.20;;;3.33;;
21175;SDS011;10746;50.178;8.186;2023-04-24T07:53:02;3.73;;;3.03;;
21175;SDS011;10746;50.178;8.186;2023-04-24T07:55:29;3.85;;;2.97;;
21175;SDS011;10746;50.178;8.186;2023-04-24T07:57:57;2.53;;;2.33;;
21175;SDS011;10746;50.178;8.186;2023-04-24T08:00:24;5.07;;;3.30;;
21175;SDS011;10746;50.178;8.186;2023-04-24T08:02:51;2.97;;;2.67;;
21175;SDS011;10746;50.178;8.186;2023-04-24T08:05:17;4.53;;;3.17;;
21175;SDS011;10746;50.178;8.186;2023-04-24T08:07:44;3.47;;;3.17;;
21175;SDS011;10746;50.178;8.186;2023-04-24T08:10:13;3.43;;;3.03;;
21175;SDS011;10746;50.178;8.186;2023-04-24T08:12:40;5.23;;;3.43;;
21175;SDS011;10746;50.178;8.186;2023-04-24T08:15:09;3.87;;;3.10;;
21175;SDS011;10746;50.178;8.186;2023-04-24T08:17:36;7.27;;;3.17;;
21175;SDS011;10746;50.178;8.186;2023-04-24T08:20:03;5.13;;;3.30;;
21175;SDS011;10746;50.178;8.186;2023-04-24T08:22:31;2.88;;;2.67;;
21175;SDS011;10746;50.178;8.186;2023-04-24T08:24:59;2.97;;;2.67;;
21175;SDS011;10746;50.178;8.186;2023-04-24T08:27:26;2.63;;;2.30;;
21175;SDS011;10746;50.178;8.186;2023-04-24T08:29:53;3.00;;;2.80;;
21175;SDS011;10746;50.178;8.186;2023-04-24T08:32:21;3.77;;;2.83;;
21175;SDS011;10746;50.178;8.186;2023-04-24T08:34:48;4.03;;;2.80;;
21175;SDS011;10746;50.178;8.186;2023-04-24T08:37:15;4.37;;;2.50;;
21175;SDS011;10746;50.178;8.186;2023-04-24T08:39:42;2.93;;;2.73;;
21175;SDS011;10746;50.178;8.186;2023-04-24T08:42:08;3.67;;;2.43;;
21175;SDS011;10746;50.178;8.186;2023-04-24T08:44:36;2.67;;;2.47;;
21175;SDS011;10746;50.178;8.186;2023-04-24T08:47:03;2.63;;;2.43;;
21175;SDS011;10746;50.178;8.186;2023-04-24T08:49:32;2.70;;;2.50;;
21175;SDS011;10746;50.178;8.186;2023-04-24T08:51:59;3.50;;;2.37;;
21175;SDS011;10746;50.178;8.186;2023-04-24T08:54:27;2.53;;;2.37;;
21175;SDS011;10746;50.178;8.186;2023-04-24T08:56:56;3.00;;;2.70;;
21175;SDS011;10746;50.178;8.186;2023-04-24T08:59:26;3.27;;;2.60;;
21175;SDS011;10746;50.178;8.186;2023-04-24T09:01:54;3.30;;;2.60;;
21175;SDS011;10746;50.178;8.186;2023-04-24T09:04:21;2.77;;;2.57;;
21175;SDS011;10746;50.178;8.186;2023-04-24T09:06:51;2.40;;;2.30;;
21175;SDS011;10746;50.178;8.186;2023-04-24T09:09:21;2.00;;;1.90;;
21175;SDS011;10746;50.178;8.186;2023-04-24T09:11:49;2.40;;;2.20;;
21175;SDS011;10746;50.178;8.186;2023-04-24T09:14:16;2.37;;;2.20;;
21175;SDS011;10746;50.178;8.186;2023-04-24T09:16:43;2.73;;;2.10;;
21175;SDS011;10746;50.178;8.186;2023-04-24T09:19:09;2.53;;;2.33;;
21175;SDS011;10746;50.178;8.186;2023-04-24T09:21:36;2.33;;;2.20;;
21175;SDS011;10746;50.178;8.186;2023-04-24T09:24:05;2.50;;;2.30;;
21175;SDS011;10746;50.178;8.186;2023-04-24T09:26:34;2.23;;;2.07;;
21175;SDS011;10746;50.178;8.186;2023-04-24T09:29:02;2.60;;;2.40;;
21175;SDS011;10746;50.178;8.186;2023-04-24T09:31:30;4.27;;;2.50;;
21175;SDS011;10746;50.178;8.186;2023-04-24T09:33:58;2.17;;;2.00;;
21175;SDS011;10746;50.178;8.186;2023-04-24T09:36:27;2.20;;;2.10;;
21175;SDS011;10746;50.178;8.186;2023-04-24T09:38:57;3.17;;;2.40;;
21175;SDS011;10746;50.178;8.186;2023-04-24T09:41:26;4.87;;;2.20;;
21175;SDS011;10746;50.178;8.186;2023-04-24T09:43:54;2.43;;;2.30;;
21175;SDS011;10746;50.178;8.186;2023-04-24T09:46:21;5.23;;;2.90;;
21175;SDS011;10746;50.178;8.186;2023-04-24T09:48:55;2.30;;;2.10;;
21175;SDS011;10746;50.178;8.186;2023-04-24T09:51:32;2.60;;;2.33;;
21175;SDS011;10746;50.178;8.186;2023-04-24T09:54:01;1.87;;;1.77;;
21175;SDS011;10746;50.178;8.186;2023-04-24T09:56:29;1.97;;;1.87;;
21175;SDS011;10746;50.178;8.186;2023-04-24T09:59:04;2.40;;;2.20;;
21175;SDS011;10746;50.178;8.186;2023-04-24T10:01:32;2.20;;;2.10;;
21175;SDS011;10746;50.178;8.186;2023-04-24T10:03:59;2.20;;;2.00;;
21175;SDS011;10746;50.178;8.186;2023-04-24T10:06:29;1.80;;;1.70;;
21175;SDS011;10746;50.178;8.186;2023-04-24T10:08:59;1.50;;;1.40;;
21175;SDS011;10746;50.178;8.186;2023-04-24T10:11:26;2.30;;;2.10;;
21175;SDS011;10746;50.178;8.186;2023-04-24T10:13:54;2.13;;;2.00;;
21175;SDS011;10746;50.178;8.186;2023-04-24T10:16:22;1.70;;;1.60;;
21175;SDS011;10746;50.178;8.186;2023-04-24T10:18:52;2.17;;;1.97;;
21175;SDS011;10746;50.178;8.186;2023-04-24T10:21:19;2.77;;;2.13;;
21175;SDS011;10746;50.178;8.186;2023-04-24T10:23:46;2.50;;;2.30;;
21175;SDS011;10746;50.178;8.186;2023-04-24T10:26:15;2.30;;;2.20;;
21175;SDS011;10746;50.178;8.186;2023-04-24T10:28:44;2.60;;;2.40;;
21175;SDS011;10746;50.178;8.186;2023-04-24T10:31:12;1.97;;;1.87;;
21175;SDS011;10746;50.178;8.186;2023-04-24T10:33:40;1.83;;;1.73;;
21175;SDS011;10746;50.178;8.186;2023-04-24T10:36:08;2.20;;;1.93;;
21175;SDS011;10746;50.178;8.186;2023-04-24T10:38:37;1.90;;;1.80;;
21175;SDS011;10746;50.178;8.186;2023-04-24T10:41:06;2.97;;;2.07;;
21175;SDS011;10746;50.178;8.186;2023-04-24T10:43:34;2.10;;;2.00;;
21175;SDS011;10746;50.178;8.186;2023-04-24T10:46:01;2.13;;;2.03;;
21175;SDS011;10746;50.178;8.186;2023-04-24T10:48:31;2.40;;;2.13;;
21175;SDS011;10746;50.178;8.186;2023-04-24T10:50:58;2.40;;;2.20;;
21175;SDS011;10746;50.178;8.186;2023-04-24T10:53:27;3.00;;;2.57;;
21175;SDS011;10746;50.178;8.186;2023-04-24T10:55:57;2.33;;;2.13;;
21175;SDS011;10746;50.178;8.186;2023-04-24T10:58:36;2.77;;;2.57;;
21175;SDS011;10746;50.178;8.186;2023-04-24T11:01:05;3.17;;;2.00;;
21175;SDS011;10746;50.178;8.186;2023-04-24T11:03:34;2.93;;;2.70;;
21175;SDS011;10746;50.178;8.186;2023-04-24T11:06:02;2.47;;;2.30;;
21175;SDS011;10746;50.178;8.186;2023-04-24T11:08:30;2.53;;;2.33;;
21175;SDS011;10746;50.178;8.186;2023-04-24T11:11:08;2.90;;;2.70;;
21175;SDS011;10746;50.178;8.186;2023-04-24T11:16:33;2.70;;;2.50;;
21175;SDS011;10746;50.178;8.186;2023-04-24T11:19:03;2.53;;;2.33;;
21175;SDS011;10746;50.178;8.186;2023-04-24T11:21:31;3.87;;;3.27;;
21175;SDS011;10746;50.178;8.186;2023-04-24T11:23:58;3.60;;;3.30;;
21175;SDS011;10746;50.178;8.186;2023-04-24T11:26:53;4.53;;;3.00;;
21175;SDS011;10746;50.178;8.186;2023-04-24T11:29:21;5.93;;;3.97;;
21175;SDS011;10746;50.178;8.186;2023-04-24T11:31:48;5.05;;;3.08;;
21175;SDS011;10746;50.178;8.186;2023-04-24T11:34:17;5.25;;;3.08;;
21175;SDS011;10746;50.178;8.186;2023-04-24T11:36:45;3.25;;;2.97;;
21175;SDS011;10746;50.178;8.186;2023-04-24T11:39:13;3.42;;;3.10;;
21175;SDS011;10746;50.178;8.186;2023-04-24T11:41:40;3.47;;;3.10;;
21175;SDS011;10746;50.178;8.186;2023-04-24T11:44:07;3.53;;;3.22;;
21175;SDS011;10746;50.178;8.186;2023-04-24T11:46:35;3.92;;;3.17;;
21175;SDS011;10746;50.178;8.186;2023-04-24T11:49:02;4.45;;;3.08;;
21175;SDS011;10746;50.178;8.186;2023-04-24T11:51:31;3.10;;;2.90;;
21175;SDS011;10746;50.178;8.186;2023-04-24T11:53:58;5.28;;;3.10;;
21175;SDS011;10746;50.178;8.186;2023-04-24T11:56:25;3.35;;;3.00;;
21175;SDS011;10746;50.178;8.186;2023-04-24T11:58:52;3.45;;;3.00;;
21175;SDS011;10746;50.178;8.186;2023-04-24T12:01:19;3.03;;;2.72;;
21175;SDS011;10746;50.178;8.186;2023-04-24T12:03:47;3.40;;;3.10;;
21175;SDS011;10746;50.178;8.186;2023-04-24T12:06:16;3.55;;;3.25;;
21175;SDS011;10746;50.178;8.186;2023-04-24T12:08:46;6.70;;;3.50;;
21175;SDS011;10746;50.178;8.186;2023-04-24T12:11:14;5.53;;;3.45;;
21175;SDS011;10746;50.178;8.186;2023-04-24T12:13:43;9.43;;;3.47;;
21175;SDS011;10746;50.178;8.186;2023-04-24T12:16:11;6.53;;;3.42;;
21175;SDS011;10746;50.178;8.186;2023-04-24T12:18:41;6.15;;;3.88;;
21175;SDS011;10746;50.178;8.186;2023-04-24T12:21:15;5.25;;;3.70;;
21175;SDS011;10746;50.178;8.186;2023-04-24T12:23:48;10.25;;;4.90;;
21175;SDS011;10746;50.178;8.186;2023-04-24T12:26:16;10.25;;;3.72;;
21175;SDS011;10746;50.178;8.186;2023-04-24T12:28:46;5.13;;;3.55;;
21175;SDS011;10746;50.178;8.186;2023-04-24T12:31:14;4.97;;;3.45;;
21175;SDS011;10746;50.178;8.186;2023-04-24T12:33:42;8.07;;;3.67;;
21175;SDS011;10746;50.178;8.186;2023-04-24T12:36:09;4.82;;;3.53;;
21175;SDS011;10746;50.178;8.186;2023-04-24T12:38:38;5.45;;;3.60;;
21175;SDS011;10746;50.178;8.186;2023-04-24T12:41:08;3.90;;;3.03;;
21175;SDS011;10746;50.178;8.186;2023-04-24T12:43:35;4.88;;;3.90;;
21175;SDS011;10746;50.178;8.186;2023-04-24T12:46:03;5.18;;;3.67;;
21175;SDS011;10746;50.178;8.186;2023-04-24T12:48:30;4.75;;;3.67;;
21175;SDS011;10746;50.178;8.186;2023-04-24T12:50:57;5.32;;;3.78;;
21175;SDS011;10746;50.178;8.186;2023-04-24T12:53:26;6.88;;;3.70;;
21175;SDS011;10746;50.178;8.186;2023-04-24T12:55:54;7.47;;;4.18;;
21175;SDS011;10746;50.178;8.186;2023-04-24T12:58:23;4.68;;;3.30;;
21175;SDS011;10746;50.178;8.186;2023-04-24T13:00:50;6.13;;;3.30;;
21175;SDS011;10746;50.178;8.186;2023-04-24T13:03:17;5.40;;;3.72;;
21175;SDS011;10746;50.178;8.186;2023-04-24T13:05:44;4.32;;;3.53;;
21175;SDS011;10746;50.178;8.186;2023-04-24T13:08:11;6.95;;;3.80;;
21175;SDS011;10746;50.178;8.186;2023-04-24T13:10:38;5.60;;;3.60;;
21175;SDS011;10746;50.178;8.186;2023-04-24T13:13:06;5.55;;;3.45;;
21175;SDS011;10746;50.178;8.186;2023-04-24T13:15:34;5.97;;;3.97;;
21175;SDS011;10746;50.178;8.186;2023-04-24T13:18:01;7.45;;;4.43;;
21175;SDS011;10746;50.178;8.186;2023-04-24T13:20:28;6.05;;;4.03;;
21175;SDS011;10746;50.178;8.186;2023-04-24T13:22:56;8.13;;;5.18;;
21175;SDS011;10746;50.178;8.186;2023-04-24T13:25:22;6.93;;;4.13;;
21175;SDS011;10746;50.178;8.186;2023-04-24T13:27:50;6.22;;;4.25;;
21175;SDS011;10746;50.178;8.186;2023-04-24T13:30:17;4.07;;;3.47;;
21175;SDS011;10746;50.178;8.186;2023-04-24T13:32:45;6.55;;;3.60;;
21175;SDS011;10746;50.178;8.186;2023-04-24T13:35:11;5.88;;;4.32;;
21175;SDS011;10746;50.178;8.186;2023-04-24T13:37:38;6.05;;;4.15;;
21175;SDS011;10746;50.178;8.186;2023-04-24T13:40:05;7.00;;;4.47;;
21175;SDS011;10746;50.178;8.186;2023-04-24T13:42:33;8.75;;;3.70;;
21175;SDS011;10746;50.178;8.186;2023-04-24T13:45:00;7.75;;;3.90;;
21175;SDS011;10746;50.178;8.186;2023-04-24T13:47:26;3.80;;;3.38;;
21175;SDS011;10746;50.178;8.186;2023-04-24T13:49:54;4.82;;;3.55;;
21175;SDS011;10746;50.178;8.186;2023-04-24T13:52:21;4.03;;;3.63;;
21175;SDS011;10746;50.178;8.186;2023-04-24T13:54:48;7.72;;;3.95;;
21175;SDS011;10746;50.178;8.186;2023-04-24T13:57:15;5.85;;;3.55;;
21175;SDS011;10746;50.178;8.186;2023-04-24T13:59:42;5.32;;;3.67;;
21175;SDS011;10746;50.178;8.186;2023-04-24T14:02:10;9.05;;;5.20;;
21175;SDS011;10746;50.178;8.186;2023-04-24T14:04:36;7.90;;;2.78;;
21175;SDS011;10746;50.178;8.186;2023-04-24T14:07:05;5.30;;;3.65;;
21175;SDS011;10746;50.178;8.186;2023-04-24T14:09:33;7.05;;;3.42;;
21175;SDS011;10746;50.178;8.186;2023-04-24T14:11:59;6.68;;;3.88;;
21175;SDS011;10746;50.178;8.186;2023-04-24T14:14:28;4.65;;;3.72;;
21175;SDS011;10746;50.178;8.186;2023-04-24T14:16:55;4.85;;;3.53;;
21175;SDS011;10746;50.178;8.186;2023-04-24T14:19:22;5.60;;;3.92;;
21175;SDS011;10746;50.178;8.186;2023-04-24T14:21:48;5.97;;;3.03;;
21175;SDS011;10746;50.178;8.186;2023-04-24T14:24:17;4.15;;;3.35;;
21175;SDS011;10746;50.178;8.186;2023-04-24T14:26:43;3.85;;;3.10;;
21175;SDS011;10746;50.178;8.186;2023-04-24T14:29:10;5.63;;;3.58;;
21175;SDS011;10746;50.178;8.186;2023-04-24T14:31:37;4.82;;;3.60;;
21175;SDS011;10746;50.178;8.186;2023-04-24T14:34:04;5.43;;;3.15;;
21175;SDS011;10746;50.178;8.186;2023-04-24T14:36:30;7.68;;;3.58;;
21175;SDS011;10746;50.178;8.186;2023-04-24T14:38:57;5.07;;;2.80;;
21175;SDS011;10746;50.178;8.186;2023-04-24T14:45:00;3.53;;;3.20;;
21175;SDS011;10746;50.178;8.186;2023-04-24T14:47:27;5.57;;;3.20;;
21175;SDS011;10746;50.178;8.186;2023-04-24T14:49:54;3.30;;;3.00;;
21175;SDS011;10746;50.178;8.186;2023-04-24T14:52:21;4.78;;;3.00;;
21175;SDS011;10746;50.178;8.186;2023-04-24T14:54:48;4.82;;;3.08;;
21175;SDS011;10746;50.178;8.186;2023-04-24T14:57:15;3.72;;;3.30;;